Time;durP1;ratioP1;P1;durP2;ratioP2;P2;SDS_P1;SDS_P2;PMS_P1;PMS_P2;Temp;Humidity;BMP_temperature;BMP_pressure;BME280_temperature;BME280_humidity;BME280_pressure;Samples;Min_cycle;Max_cycle;Signal;HPM_P1;HPM_P2
2023/04/25 00:01:21;;;;;;;14.02;4.53;;;6.40;99.90;;;;;;5011303;28;20033;-81
2023/04/25 00:03:48;;;;;;;13.40;3.53;;;6.50;99.90;;;;;;5027358;28;20033;-82
2023/04/25 00:06:13;;;;;;;10.25;3.65;;;6.50;99.90;;;;;;5011020;28;20091;-82
2023/04/25 00:08:39;;;;;;;14.10;5.18;;;6.60;99.90;;;;;;5026291;28;20033;-82
2023/04/25 00:11:05;;;;;;;15.65;4.72;;;6.50;99.90;;;;;;5026982;28;20510;-82
2023/04/25 00:13:31;;;;;;;10.20;4.53;;;6.40;99.90;;;;;;5027025;28;20045;-81
2023/04/25 00:15:57;;;;;;;10.50;3.60;;;6.50;99.90;;;;;;5042471;28;20044;-82
2023/04/25 00:18:23;;;;;;;10.07;4.38;;;6.60;99.90;;;;;;5012275;28;20033;-82
2023/04/25 00:20:48;;;;;;;14.07;5.07;;;6.60;99.90;;;;;;5026765;28;20037;-82
2023/04/25 00:23:19;;;;;;;8.65;4.05;;;6.60;99.90;;;;;;5045787;28;20037;-80
2023/04/25 00:25:45;;;;;;;10.80;3.45;;;6.70;99.90;;;;;;5021850;28;20029;-81
2023/04/25 00:28:12;;;;;;;8.40;3.83;;;6.60;99.90;;;;;;5024604;28;20037;-81
2023/04/25 00:30:38;;;;;;;10.70;3.20;;;6.60;99.90;;;;;;5027819;28;20449;-82
2023/04/25 00:33:05;;;;;;;12.05;3.67;;;6.70;99.90;;;;;;5025595;28;20673;-81
2023/04/25 00:35:31;;;;;;;12.02;3.92;;;6.70;99.90;;;;;;5024473;28;20025;-82
2023/04/25 00:37:56;;;;;;;10.15;4.15;;;6.70;99.90;;;;;;5039387;28;20417;-82
2023/04/25 00:40:22;;;;;;;13.45;3.80;;;6.70;99.90;;;;;;5016919;28;20388;-82
2023/04/25 00:42:47;;;;;;;14.27;4.95;;;6.80;99.90;;;;;;5009137;28;20036;-80
2023/04/25 00:45:17;;;;;;;14.70;3.63;;;6.80;99.90;;;;;;5027238;28;20404;-80
2023/04/25 00:47:43;;;;;;;12.55;4.65;;;6.90;99.90;;;;;;5027162;28;20033;-81
2023/04/25 00:50:10;;;;;;;12.50;3.85;;;6.80;99.90;;;;;;5009255;28;20483;-82
2023/04/25 00:52:43;;;;;;;8.80;3.10;;;6.80;99.90;;;;;;5027360;28;21672;-81
2023/04/25 00:55:10;;;;;;;9.48;3.55;;;6.80;99.90;;;;;;5010577;28;20419;-81
2023/04/25 00:57:36;;;;;;;5.68;3.13;;;6.80;99.90;;;;;;4993616;28;20041;-81
2023/04/25 01:00:02;;;;;;;9.60;3.65;;;6.90;99.90;;;;;;5016116;28;20102;-81
2023/04/25 01:02:28;;;;;;;5.18;2.85;;;6.90;99.90;;;;;;5010064;28;20461;-81
2023/04/25 01:04:53;;;;;;;12.95;4.00;;;7.00;99.90;;;;;;5025929;28;20103;-81
2023/04/25 01:07:20;;;;;;;6.93;3.38;;;6.90;99.90;;;;;;5040369;28;20087;-80
2023/04/25 01:09:46;;;;;;;8.57;4.03;;;6.90;99.90;;;;;;5007655;28;20460;-81
2023/04/25 01:12:11;;;;;;;7.80;3.53;;;7.00;99.90;;;;;;5025976;28;20046;-82
2023/04/25 01:14:37;;;;;;;15.07;5.05;;;6.90;99.90;;;;;;5042773;28;20055;-81
2023/04/25 01:17:03;;;;;;;9.25;3.22;;;6.90;99.90;;;;;;5008758;28;20033;-81
2023/04/25 01:19:29;;;;;;;14.18;5.85;;;6.90;99.90;;;;;;5026691;28;20036;-80
2023/04/25 01:21:55;;;;;;;7.75;3.65;;;6.90;99.90;;;;;;5038269;28;20817;-82
2023/04/25 01:24:20;;;;;;;8.68;3.42;;;7.00;99.90;;;;;;5025972;28;20551;-82
2023/04/25 01:26:49;;;;;;;16.85;5.25;;;6.90;99.90;;;;;;5026816;28;20056;-82
2023/04/25 01:29:18;;;;;;;15.95;5.65;;;6.90;99.90;;;;;;5021641;28;20059;-81
2023/04/25 01:31:44;;;;;;;14.45;4.95;;;6.90;99.90;;;;;;5023288;28;20037;-82
2023/04/25 01:34:10;;;;;;;12.88;5.50;;;7.00;99.90;;;;;;5025473;28;20047;-81
2023/04/25 01:36:36;;;;;;;14.55;5.05;;;6.90;99.90;;;;;;5009169;28;20075;-81
2023/04/25 01:39:01;;;;;;;13.05;3.65;;;7.00;99.90;;;;;;5026076;28;20056;-81
2023/04/25 01:41:27;;;;;;;14.10;5.47;;;7.00;99.90;;;;;;5041897;28;20041;-81
2023/04/25 01:43:53;;;;;;;11.73;6.07;;;6.90;99.90;;;;;;5027077;28;20040;-80
2023/04/25 01:46:18;;;;;;;10.32;5.22;;;6.90;99.90;;;;;;5023088;28;20040;-80
2023/04/25 01:48:47;;;;;;;14.90;5.05;;;6.90;99.90;;;;;;5023972;28;20045;-81
2023/04/25 01:51:13;;;;;;;14.05;5.30;;;7.00;99.90;;;;;;5025499;28;20047;-81
2023/04/25 01:53:39;;;;;;;9.32;3.70;;;6.90;99.90;;;;;;5024774;28;20036;-81
2023/04/25 01:56:08;;;;;;;10.30;4.38;;;7.00;99.90;;;;;;5006438;28;20522;-80
2023/04/25 01:58:33;;;;;;;10.00;5.13;;;7.00;99.90;;;;;;5023204;28;20583;-80
2023/04/25 02:00:59;;;;;;;12.43;5.38;;;7.00;99.90;;;;;;5024023;28;20078;-80
2023/04/25 02:03:24;;;;;;;12.88;6.45;;;6.90;99.90;;;;;;5026229;28;20444;-80
2023/04/25 02:05:50;;;;;;;7.05;4.22;;;7.00;99.90;;;;;;5027270;28;20481;-80
2023/04/25 02:08:16;;;;;;;11.45;3.83;;;7.00;99.90;;;;;;5043370;28;20033;-80
2023/04/25 02:10:41;;;;;;;14.20;4.63;;;7.00;99.90;;;;;;5007945;28;20038;-81
2023/04/25 02:13:07;;;;;;;14.10;4.78;;;7.00;99.90;;;;;;5009226;28;20484;-80
2023/04/25 02:15:34;;;;;;;15.57;5.72;;;7.00;99.90;;;;;;5024252;28;20057;-80
2023/04/25 02:18:02;;;;;;;10.50;4.88;;;7.00;99.90;;;;;;5025386;28;20033;-81
2023/04/25 02:20:28;;;;;;;11.98;4.18;;;6.90;99.90;;;;;;5007183;28;20033;-79
2023/04/25 02:22:54;;;;;;;17.63;5.45;;;7.10;99.90;;;;;;5025068;28;20040;-81
2023/04/25 02:25:20;;;;;;;12.52;3.03;;;7.00;99.90;;;;;;5008307;28;20033;-80
2023/04/25 02:27:46;;;;;;;16.67;5.45;;;7.00;99.90;;;;;;5019157;28;20095;-81
2023/04/25 02:30:12;;;;;;;9.40;3.97;;;7.00;99.90;;;;;;5038503;28;20075;-80
2023/04/25 02:32:38;;;;;;;10.80;5.03;;;7.10;99.90;;;;;;5022587;28;20045;-81
2023/04/25 02:35:04;;;;;;;19.00;5.72;;;7.00;99.90;;;;;;5023161;28;20025;-81
2023/04/25 02:37:34;;;;;;;13.23;5.45;;;7.00;99.90;;;;;;5035923;28;20029;-80
2023/04/25 02:40:00;;;;;;;12.40;5.22;;;7.00;99.90;;;;;;5010372;28;20033;-80
2023/04/25 02:42:26;;;;;;;12.43;5.28;;;7.00;99.90;;;;;;5042122;28;20040;-81
2023/04/25 02:44:51;;;;;;;10.43;5.20;;;6.90;99.90;;;;;;5008628;28;20033;-81
2023/04/25 02:47:17;;;;;;;10.07;4.85;;;6.90;99.90;;;;;;5020391;28;20032;-81
2023/04/25 02:49:42;;;;;;;7.18;3.53;;;7.00;99.90;;;;;;5007921;28;20079;-82
2023/04/25 02:52:08;;;;;;;12.60;4.57;;;7.00;99.90;;;;;;5042764;28;20033;-80
2023/04/25 02:54:34;;;;;;;9.13;3.47;;;6.90;99.90;;;;;;5020916;28;20049;-79
2023/04/25 02:57:00;;;;;;;17.92;6.18;;;7.00;99.90;;;;;;5024080;28;20033;-81
2023/04/25 02:59:26;;;;;;;4.13;2.15;;;7.00;99.90;;;;;;5021897;28;20033;-81
2023/04/25 03:01:51;;;;;;;22.35;7.18;;;6.90;99.90;;;;;;5021739;28;20064;-81
2023/04/25 03:04:18;;;;;;;15.38;6.07;;;6.80;99.90;;;;;;5024885;28;20029;-81
2023/04/25 03:06:44;;;;;;;13.70;7.35;;;6.80;99.90;;;;;;5042016;28;20033;-81
2023/04/25 03:09:10;;;;;;;14.18;5.90;;;6.80;99.90;;;;;;5012755;28;20033;-81
2023/04/25 03:11:36;;;;;;;16.88;7.53;;;6.80;99.90;;;;;;5026384;28;20499;-80
2023/04/25 03:14:02;;;;;;;14.73;6.18;;;6.80;99.90;;;;;;5028208;28;20443;-81
2023/04/25 03:16:28;;;;;;;9.25;4.55;;;6.80;99.90;;;;;;5041961;28;20033;-79
2023/04/25 03:18:53;;;;;;;15.13;6.35;;;6.80;99.90;;;;;;5026002;28;20389;-82
2023/04/25 03:21:19;;;;;;;10.88;5.40;;;6.90;99.90;;;;;;5024854;28;20106;-80
2023/04/25 03:23:45;;;;;;;15.55;8.15;;;6.90;99.90;;;;;;5045970;28;20040;-81
2023/04/25 03:26:11;;;;;;;16.27;8.00;;;6.90;99.90;;;;;;5011287;28;20124;-82
2023/04/25 03:28:36;;;;;;;17.45;7.85;;;6.90;99.90;;;;;;5011874;28;20032;-81
2023/04/25 03:31:02;;;;;;;17.63;7.05;;;6.70;99.90;;;;;;5010619;28;20052;-80
2023/04/25 03:33:27;;;;;;;18.30;7.25;;;6.70;99.90;;;;;;5011753;28;20044;-80
2023/04/25 03:35:53;;;;;;;14.25;5.35;;;6.70;99.90;;;;;;5025873;28;20475;-81
2023/04/25 03:38:19;;;;;;;21.80;8.45;;;6.60;99.90;;;;;;5027981;28;20979;-81
2023/04/25 03:40:44;;;;;;;20.10;8.43;;;6.60;99.90;;;;;;5010819;28;20461;-81
2023/04/25 03:43:11;;;;;;;15.70;8.07;;;6.60;99.90;;;;;;5009656;28;20040;-81
2023/04/25 03:45:36;;;;;;;15.55;6.85;;;6.60;99.90;;;;;;5010697;28;20036;-81
2023/04/25 03:48:02;;;;;;;23.13;8.27;;;6.60;99.90;;;;;;5011399;28;20744;-82
2023/04/25 03:50:27;;;;;;;15.73;6.22;;;6.70;99.90;;;;;;5026379;28;20056;-81
2023/04/25 03:52:53;;;;;;;22.67;6.88;;;6.60;99.90;;;;;;5025987;28;20048;-82
2023/04/25 03:55:19;;;;;;;18.63;5.18;;;6.60;99.90;;;;;;5008982;28;20171;-81
2023/04/25 03:57:44;;;;;;;17.58;6.32;;;6.60;99.90;;;;;;5025333;28;20397;-82
2023/04/25 04:00:10;;;;;;;19.45;6.80;;;6.70;99.90;;;;;;5044550;28;20041;-81
2023/04/25 04:02:37;;;;;;;11.00;4.90;;;6.60;99.90;;;;;;5042012;28;20049;-81
2023/04/25 04:05:03;;;;;;;14.68;5.35;;;6.60;99.90;;;;;;5044073;28;20048;-80
2023/04/25 04:07:29;;;;;;;15.05;4.43;;;6.60;99.90;;;;;;5007668;28;20159;-82
2023/04/25 04:09:55;;;;;;;20.52;5.45;;;6.50;99.90;;;;;;5044752;28;20113;-81
2023/04/25 04:12:21;;;;;;;14.50;3.60;;;6.50;99.90;;;;;;5009163;28;20037;-82
2023/04/25 04:14:47;;;;;;;17.65;6.05;;;6.50;99.90;;;;;;5008246;28;20052;-82
2023/04/25 04:17:12;;;;;;;12.93;4.45;;;6.50;99.90;;;;;;5043303;28;20041;-81
2023/04/25 04:19:38;;;;;;;21.70;6.13;;;6.60;99.90;;;;;;5041536;28;20045;-82
2023/04/25 04:22:03;;;;;;;14.73;4.60;;;6.50;99.90;;;;;;5010616;28;20119;-81
2023/04/25 04:24:29;;;;;;;18.95;5.68;;;6.50;99.90;;;;;;5010645;28;20037;-81
2023/04/25 04:26:54;;;;;;;13.52;4.05;;;6.40;99.90;;;;;;5043039;28;20037;-81
2023/04/25 04:29:20;;;;;;;20.50;5.68;;;6.40;99.90;;;;;;5025541;28;20120;-80
2023/04/25 04:31:50;;;;;;;17.15;5.72;;;6.40;99.90;;;;;;5008834;28;20052;-80
2023/04/25 04:34:18;;;;;;;21.80;5.60;;;6.50;99.90;;;;;;5024122;28;20091;-81
2023/04/25 04:36:47;;;;;;;18.83;5.53;;;6.40;99.90;;;;;;5025971;28;20037;-80
2023/04/25 04:39:13;;;;;;;16.63;8.02;;;6.40;99.90;;;;;;5023781;28;20588;-81
2023/04/25 04:41:39;;;;;;;22.13;7.38;;;6.40;99.90;;;;;;5021420;28;20068;-81
2023/04/25 04:44:06;;;;;;;22.80;7.53;;;6.40;99.90;;;;;;5008710;28;20496;-82
2023/04/25 04:46:37;;;;;;;26.35;7.60;;;6.30;99.90;;;;;;5009874;28;20125;-81
2023/04/25 04:49:05;;;;;;;21.92;6.88;;;6.40;99.90;;;;;;5022674;28;20068;-81
2023/04/25 04:51:31;;;;;;;19.10;8.13;;;6.30;99.90;;;;;;5024474;28;20041;-79
2023/04/25 04:53:58;;;;;;;12.70;3.83;;;6.40;99.90;;;;;;5026007;28;20467;-81
2023/04/25 04:56:25;;;;;;;19.02;6.88;;;6.40;99.90;;;;;;5041222;28;20037;-80
2023/04/25 04:58:51;;;;;;;19.02;5.65;;;6.40;99.90;;;;;;5007039;28;20092;-80
2023/04/25 05:01:16;;;;;;;23.25;7.45;;;6.20;99.90;;;;;;5007861;28;20503;-79
2023/04/25 05:03:42;;;;;;;27.90;7.53;;;6.30;99.90;;;;;;5040167;28;20044;-80
2023/04/25 05:06:08;;;;;;;12.95;5.28;;;6.20;99.90;;;;;;5008210;28;20033;-80
2023/04/25 05:08:34;;;;;;;22.90;7.63;;;6.20;99.90;;;;;;5006216;28;20040;-80
2023/04/25 05:11:00;;;;;;;22.27;7.00;;;6.10;99.90;;;;;;5008838;28;20047;-81
2023/04/25 05:13:25;;;;;;;15.93;7.88;;;6.20;99.90;;;;;;5022950;28;20037;-80
2023/04/25 05:15:51;;;;;;;28.52;7.40;;;6.20;99.90;;;;;;5004756;28;20036;-81
2023/04/25 05:18:16;;;;;;;26.05;7.82;;;6.20;99.90;;;;;;5007986;28;20048;-81
2023/04/25 05:20:42;;;;;;;17.67;6.93;;;6.20;99.90;;;;;;5022842;28;20029;-81
2023/04/25 05:23:07;;;;;;;22.33;5.97;;;6.20;99.90;;;;;;5008010;28;20036;-81
2023/04/25 05:25:33;;;;;;;22.65;7.20;;;6.20;99.90;;;;;;5023337;28;20440;-79
2023/04/25 05:27:59;;;;;;;22.92;6.63;;;6.30;99.90;;;;;;5010439;28;20423;-80
2023/04/25 05:30:24;;;;;;;19.88;6.10;;;6.40;99.90;;;;;;5006959;28;20113;-80
2023/04/25 05:32:50;;;;;;;29.50;8.55;;;6.30;99.90;;;;;;5040607;28;20124;-80
2023/04/25 05:35:16;;;;;;;13.02;5.50;;;6.40;99.90;;;;;;5009681;28;20032;-81
2023/04/25 05:37:42;;;;;;;22.63;8.02;;;6.40;99.90;;;;;;5007212;28;20076;-81
2023/04/25 05:40:08;;;;;;;18.40;5.65;;;6.40;99.90;;;;;;5025398;28;20545;-81
2023/04/25 05:42:34;;;;;;;22.33;6.05;;;6.50;99.90;;;;;;5042202;28;20124;-81
2023/04/25 05:45:00;;;;;;;13.93;5.68;;;6.60;99.90;;;;;;5010184;28;20120;-80
2023/04/25 05:47:26;;;;;;;12.55;5.20;;;6.60;99.90;;;;;;5007790;28;20063;-80
2023/04/25 05:49:52;;;;;;;19.92;6.78;;;6.70;99.90;;;;;;5024146;28;20060;-79
2023/04/25 05:52:17;;;;;;;23.75;6.50;;;6.70;99.90;;;;;;5022981;28;20085;-79
2023/04/25 05:54:43;;;;;;;18.80;5.75;;;6.80;99.90;;;;;;5039634;28;20511;-80
2023/04/25 05:57:08;;;;;;;25.98;6.38;;;6.90;99.90;;;;;;5007644;28;20094;-80
2023/04/25 05:59:34;;;;;;;25.10;7.47;;;6.90;99.90;;;;;;5039620;28;20117;-80
2023/04/25 06:02:00;;;;;;;19.88;6.50;;;6.90;99.90;;;;;;5024932;28;20041;-80
2023/04/25 06:04:26;;;;;;;24.55;8.30;;;6.90;99.90;;;;;;5025693;28;20025;-80
2023/04/25 06:06:51;;;;;;;24.00;6.32;;;6.90;99.90;;;;;;5023797;28;20519;-81
2023/04/25 06:09:17;;;;;;;18.40;5.90;;;7.00;99.90;;;;;;5025371;28;20397;-80
2023/04/25 06:11:42;;;;;;;19.50;5.30;;;7.10;99.90;;;;;;5041002;28;20115;-81
2023/04/25 06:14:08;;;;;;;15.13;5.38;;;7.20;99.90;;;;;;5042084;28;20566;-80
2023/04/25 06:16:34;;;;;;;20.15;6.50;;;7.30;99.90;;;;;;5022387;28;20030;-80
2023/04/25 06:18:59;;;;;;;20.88;5.85;;;7.50;99.90;;;;;;5021055;28;20034;-80
2023/04/25 06:21:25;;;;;;;18.35;5.47;;;7.50;99.90;;;;;;5004882;28;20041;-80
2023/04/25 06:23:51;;;;;;;14.63;5.65;;;7.60;99.90;;;;;;4992929;28;20116;-81
2023/04/25 06:26:16;;;;;;;16.63;4.70;;;7.70;99.90;;;;;;5019833;28;20104;-80
2023/04/25 06:28:42;;;;;;;24.40;6.03;;;7.80;99.90;;;;;;5023733;28;20033;-81
2023/04/25 06:31:08;;;;;;;15.00;5.97;;;7.90;99.90;;;;;;5024583;28;20587;-81
2023/04/25 06:33:33;;;;;;;21.90;5.38;;;8.00;99.90;;;;;;5007340;28;20084;-80
2023/04/25 06:35:59;;;;;;;15.23;4.68;;;8.10;99.90;;;;;;5023239;28;20120;-81
2023/04/25 06:38:24;;;;;;;17.83;5.85;;;8.20;99.90;;;;;;5038732;28;20040;-80
2023/04/25 06:40:51;;;;;;;17.67;6.10;;;8.20;99.90;;;;;;5009011;28;20439;-80
2023/04/25 06:43:16;;;;;;;13.48;4.13;;;8.30;99.90;;;;;;5028242;28;20032;-79
2023/04/25 06:45:42;;;;;;;16.40;5.82;;;8.40;99.90;;;;;;5011669;28;20087;-80
2023/04/25 06:48:07;;;;;;;15.45;4.82;;;8.50;99.90;;;;;;5044784;28;20063;-79
2023/04/25 06:50:33;;;;;;;21.90;5.13;;;8.80;99.90;;;;;;5006680;28;20049;-79
2023/04/25 06:53:01;;;;;;;27.40;5.90;;;9.00;99.90;;;;;;5022775;28;20036;-79
2023/04/25 06:55:27;;;;;;;17.25;4.97;;;9.30;99.90;;;;;;5025657;28;20025;-79
2023/04/25 06:57:52;;;;;;;17.95;4.53;;;9.50;99.90;;;;;;5044457;28;20044;-79
2023/04/25 07:00:18;;;;;;;26.65;6.55;;;9.60;99.90;;;;;;5009115;28;20422;-78
2023/04/25 07:02:44;;;;;;;13.32;3.25;;;9.60;99.90;;;;;;5024544;28;20159;-78
2023/04/25 07:05:10;;;;;;;24.92;6.85;;;9.40;99.90;;;;;;5021075;28;20078;-78
2023/04/25 07:07:35;;;;;;;18.77;3.83;;;9.30;99.90;;;;;;5009098;28;20036;-79
2023/04/25 07:10:01;;;;;;;7.65;2.00;;;9.30;99.90;;;;;;5011605;28;20073;-79
2023/04/25 07:12:27;;;;;;;10.40;2.10;;;9.20;99.90;;;;;;5008876;28;20078;-79
2023/04/25 07:14:52;;;;;;;9.57;2.10;;;9.00;99.90;;;;;;5039731;28;20033;-79
2023/04/25 07:17:18;;;;;;;4.70;2.25;;;9.10;99.90;;;;;;5049006;28;20125;-80
2023/04/25 07:19:43;;;;;;;6.55;1.95;;;9.10;99.90;;;;;;5028340;28;20111;-80
2023/04/25 07:22:09;;;;;;;8.32;1.77;;;9.10;99.90;;;;;;5045407;28;20128;-80
2023/04/25 07:24:34;;;;;;;7.57;1.80;;;9.10;99.90;;;;;;5021465;28;20675;-80
2023/04/25 07:27:01;;;;;;;11.45;2.17;;;9.10;99.90;;;;;;5026411;28;20523;-80
2023/04/25 07:29:26;;;;;;;9.68;1.95;;;9.20;99.90;;;;;;5022439;28;20033;-80
2023/04/25 07:31:52;;;;;;;6.10;1.95;;;9.20;99.90;;;;;;5024207;28;20051;-80
2023/04/25 07:34:18;;;;;;;7.93;2.38;;;9.30;99.90;;;;;;5027069;28;20044;-80
2023/04/25 07:36:44;;;;;;;11.98;2.95;;;9.50;99.90;;;;;;5040647;28;20033;-79
2023/04/25 07:39:10;;;;;;;8.57;2.47;;;9.60;99.90;;;;;;5010102;28;20420;-79
2023/04/25 07:41:36;;;;;;;7.97;2.22;;;9.70;99.90;;;;;;5042171;28;20040;-78
2023/04/25 07:44:02;;;;;;;4.80;2.17;;;9.90;99.90;;;;;;5009490;28;20044;-78
2023/04/25 07:46:27;;;;;;;7.22;2.20;;;10.00;99.90;;;;;;5009129;28;20481;-78
2023/04/25 07:48:55;;;;;;;6.43;2.22;;;10.20;99.90;;;;;;5043657;28;20079;-78
2023/04/25 07:51:22;;;;;;;10.25;2.80;;;10.40;99.90;;;;;;5026139;28;20424;-79
2023/04/25 07:53:47;;;;;;;9.35;2.20;;;10.60;99.90;;;;;;5027217;28;20043;-79
2023/04/25 07:56:13;;;;;;;11.77;2.50;;;10.60;99.90;;;;;;5025366;28;20412;-79
2023/04/25 07:58:38;;;;;;;11.57;2.42;;;10.70;99.90;;;;;;5043120;28;20033;-78
2023/04/25 08:01:04;;;;;;;13.68;2.85;;;10.80;99.90;;;;;;5009380;28;20488;-78
2023/04/25 08:03:30;;;;;;;15.95;2.35;;;10.90;99.90;;;;;;5005952;28;20057;-78
2023/04/25 08:05:55;;;;;;;15.50;2.22;;;11.20;99.90;;;;;;5025251;28;20092;-77
2023/04/25 08:08:21;;;;;;;11.27;2.03;;;11.30;99.90;;;;;;5027328;28;20040;-78
2023/04/25 08:10:48;;;;;;;9.60;2.75;;;11.40;99.90;;;;;;5025541;28;20371;-78
2023/04/25 08:13:13;;;;;;;13.55;2.97;;;11.70;99.90;;;;;;5010938;28;20029;-78
2023/04/25 08:15:39;;;;;;;15.23;2.65;;;12.00;99.90;;;;;;5040954;28;20481;-78
2023/04/25 08:18:05;;;;;;;9.68;2.20;;;12.30;99.90;;;;;;5027268;28;20036;-78
2023/04/25 08:20:30;;;;;;;11.98;2.53;;;12.60;99.90;;;;;;5025493;28;20155;-77
2023/04/25 08:22:56;;;;;;;9.80;2.08;;;12.50;99.90;;;;;;5041844;28;20027;-77
2023/04/25 08:25:21;;;;;;;11.88;2.28;;;12.60;99.90;;;;;;5026213;28;20124;-77
2023/04/25 08:27:47;;;;;;;7.78;2.15;;;12.90;99.90;;;;;;5027062;28;20484;-78
2023/04/25 08:30:13;;;;;;;6.63;1.70;;;13.00;99.90;;;;;;5010962;28;20143;-78
2023/04/25 08:32:38;;;;;;;9.30;1.80;;;13.20;99.90;;;;;;5042865;28;20071;-78
2023/04/25 08:35:04;;;;;;;7.55;2.10;;;13.10;99.90;;;;;;5009608;28;20084;-78
2023/04/25 08:37:30;;;;;;;8.48;1.95;;;13.40;99.90;;;;;;5004089;28;20126;-77
2023/04/25 08:39:56;;;;;;;11.85;1.90;;;13.70;99.90;;;;;;5027650;28;20032;-78
2023/04/25 08:42:21;;;;;;;7.40;1.80;;;14.20;99.90;;;;;;5024456;28;20032;-78
2023/04/25 08:44:48;;;;;;;13.15;2.97;;;14.40;99.90;;;;;;5009290;28;20029;-78
2023/04/25 08:47:13;;;;;;;8.48;2.42;;;14.50;99.90;;;;;;5025021;28;20028;-78
2023/04/25 08:49:39;;;;;;;8.27;2.85;;;14.40;99.90;;;;;;5042747;28;20029;-79
2023/04/25 08:52:06;;;;;;;12.13;2.63;;;14.30;99.90;;;;;;5025594;28;20091;-78
2023/04/25 08:54:31;;;;;;;10.55;2.72;;;14.00;99.90;;;;;;5040288;28;20650;-78
2023/04/25 08:57:01;;;;;;;8.50;1.60;;;13.90;99.90;;;;;;5042461;28;20033;-78
2023/04/25 08:59:27;;;;;;;8.23;2.20;;;13.70;99.90;;;;;;5040687;28;20032;-78
2023/04/25 09:01:52;;;;;;;8.13;1.67;;;13.70;99.90;;;;;;5043637;28;20036;-78
2023/04/25 09:04:20;;;;;;;14.13;3.15;;;13.60;99.90;;;;;;5026211;28;20481;-78
2023/04/25 09:06:46;;;;;;;17.15;2.90;;;13.70;99.90;;;;;;5037730;28;20029;-78
2023/04/25 09:09:11;;;;;;;10.80;2.10;;;13.70;99.90;;;;;;5041936;28;20021;-78
2023/04/25 09:11:37;;;;;;;7.95;1.40;;;13.80;99.90;;;;;;5036862;28;20104;-78
2023/04/25 09:14:20;;;;;;;6.65;1.60;;;13.80;99.90;;;;;;5025761;28;20070;-78
2023/04/25 09:17:02;;;;;;;8.93;2.25;;;14.00;99.90;;;;;;5042869;28;20256;-78
2023/04/25 09:19:33;;;;;;;5.65;1.42;;;14.20;99.90;;;;;;5041461;28;20037;-77
2023/04/25 09:21:59;;;;;;;4.63;1.23;;;14.50;99.90;;;;;;5039830;28;20589;-78
2023/04/25 09:24:45;;;;;;;7.65;1.95;;;14.70;99.90;;;;;;5024696;28;20029;-78
2023/04/25 09:27:13;;;;;;;8.45;1.60;;;14.90;99.90;;;;;;5022335;28;20052;-78
2023/04/25 09:29:40;;;;;;;7.93;1.42;;;15.00;99.90;;;;;;5040293;28;20053;-78
2023/04/25 09:32:22;;;;;;;9.82;2.22;;;15.00;99.90;;;;;;5042622;28;20032;-78
2023/04/25 09:34:52;;;;;;;10.82;2.08;;;15.20;99.90;;;;;;5030978;28;20051;-78
2023/04/25 09:37:30;;;;;;;3.92;1.30;;;15.10;99.90;;;;;;5032149;28;20546;-77
2023/04/25 09:40:00;;;;;;;6.65;1.73;;;15.00;99.60;;;;;;5039984;28;20032;-77
2023/04/25 09:42:27;;;;;;;11.55;2.85;;;14.90;99.90;;;;;;5041860;28;20388;-77
2023/04/25 09:44:53;;;;;;;12.65;2.95;;;15.10;99.90;;;;;;5037783;28;20030;-76
2023/04/25 09:47:21;;;;;;;12.05;4.25;;;15.20;98.20;;;;;;5023971;28;20029;-77
2023/04/25 09:49:46;;;;;;;5.15;1.70;;;15.20;99.10;;;;;;5023376;28;20029;-77
2023/04/25 09:52:19;;;;;;;5.43;1.48;;;15.20;99.90;;;;;;5025630;28;20048;-78
2023/04/25 09:54:46;;;;;;;8.45;1.80;;;15.40;99.90;;;;;;5005630;28;20140;-77
2023/04/25 09:57:16;;;;;;;5.18;1.23;;;15.50;99.90;;;;;;5008031;28;20362;-77
2023/04/25 09:59:45;;;;;;;7.40;1.58;;;15.80;99.90;;;;;;5021422;28;20063;-77
2023/04/25 10:02:11;;;;;;;5.63;1.60;;;15.80;99.90;;;;;;5025486;28;20389;-77
2023/04/25 10:04:38;;;;;;;5.00;2.00;;;15.80;99.80;;;;;;5005291;28;21061;-78
2023/04/25 10:07:08;;;;;;;9.25;1.58;;;15.70;99.80;;;;;;5024901;28;20033;-78
2023/04/25 10:09:33;;;;;;;4.75;1.70;;;15.80;99.90;;;;;;5041664;28;20029;-78
2023/04/25 10:11:59;;;;;;;5.13;1.58;;;15.90;99.90;;;;;;5041488;28;20036;-78
2023/04/25 10:14:25;;;;;;;4.25;1.20;;;16.00;99.90;;;;;;5008742;28;20073;-78
2023/04/25 10:16:53;;;;;;;1.83;0.93;;;15.90;99.90;;;;;;5023110;28;20064;-78
2023/04/25 10:19:22;;;;;;;8.85;1.70;;;15.80;99.90;;;;;;5009481;28;20052;-78
2023/04/25 10:22:07;;;;;;;5.55;1.50;;;16.20;97.70;;;;;;5023179;28;20647;-78
2023/04/25 10:24:35;;;;;;;4.80;1.08;;;16.20;96.30;;;;;;5040196;28;20041;-77
2023/04/25 10:27:01;;;;;;;6.90;1.58;;;16.20;98.10;;;;;;5025499;28;20029;-77
2023/04/25 10:29:27;;;;;;;8.50;1.42;;;16.30;98.20;;;;;;5025474;28;20374;-77
2023/04/25 10:31:53;;;;;;;6.13;1.17;;;16.30;97.70;;;;;;5039789;28;20041;-77
2023/04/25 10:34:18;;;;;;;5.50;1.60;;;16.20;96.70;;;;;;5021672;28;20044;-76
2023/04/25 10:36:52;;;;;;;5.40;1.23;;;16.10;98.90;;;;;;5039307;28;20455;-77
2023/04/25 10:39:24;;;;;;;6.32;1.67;;;16.10;98.40;;;;;;5020584;28;20530;-77
2023/04/25 10:41:54;;;;;;;7.10;1.30;;;16.20;98.10;;;;;;5031117;28;20140;-77
2023/04/25 10:44:20;;;;;;;3.42;0.90;;;16.30;98.30;;;;;;5038339;28;20029;-77
2023/04/25 10:46:46;;;;;;;7.63;1.20;;;16.50;97.90;;;;;;5022009;28;20029;-77
2023/04/25 10:49:15;;;;;;;5.30;1.33;;;16.50;97.80;;;;;;5004497;28;20056;-78
2023/04/25 10:51:41;;;;;;;4.03;1.15;;;16.60;98.60;;;;;;5022715;28;20037;-77
2023/04/25 10:54:09;;;;;;;3.78;0.82;;;16.40;98.30;;;;;;5024253;28;20029;-77
2023/04/25 10:56:44;;;;;;;4.63;1.23;;;16.50;97.20;;;;;;5036714;28;20033;-78
2023/04/25 10:59:19;;;;;;;5.72;1.27;;;16.30;97.50;;;;;;5006146;28;20029;-77
2023/04/25 11:01:46;;;;;;;2.97;1.60;;;16.00;97.50;;;;;;5023390;28;20128;-78
2023/04/25 11:04:21;;;;;;;3.85;0.90;;;15.70;96.80;;;;;;5023737;28;20626;-77
2023/04/25 11:07:08;;;;;;;4.67;1.00;;;15.40;98.30;;;;;;5039437;28;20415;-78
2023/04/25 11:09:38;;;;;;;4.13;0.95;;;15.30;97.80;;;;;;5036081;28;20509;-78
2023/04/25 11:12:04;;;;;;;7.30;2.40;;;15.30;96.90;;;;;;5024543;28;20044;-78
2023/04/25 11:14:30;;;;;;;12.07;2.22;;;15.20;95.00;;;;;;5020661;28;20037;-78
2023/04/25 11:16:56;;;;;;;7.30;2.08;;;14.80;94.20;;;;;;5022001;28;20099;-78
2023/04/25 11:19:22;;;;;;;4.97;1.70;;;14.30;93.10;;;;;;5041438;28;20032;-79
2023/04/25 11:21:49;;;;;;;7.18;1.73;;;14.20;94.00;;;;;;5024268;28;20033;-77
2023/04/25 11:24:16;;;;;;;11.10;1.80;;;14.00;95.30;;;;;;5023496;28;20029;-78
2023/04/25 11:26:42;;;;;;;3.53;1.65;;;13.90;96.00;;;;;;5022915;28;20095;-78
2023/04/25 11:29:08;;;;;;;8.35;2.08;;;13.70;95.70;;;;;;5028849;28;20029;-77
2023/04/25 11:31:33;;;;;;;9.25;2.10;;;13.70;95.90;;;;;;5045293;28;20044;-78
2023/04/25 11:33:59;;;;;;;5.00;1.48;;;13.80;96.30;;;;;;5045880;28;20071;-79
2023/04/25 11:36:26;;;;;;;4.65;1.05;;;13.90;95.70;;;;;;5008958;28;20075;-79
2023/04/25 11:38:52;;;;;;;6.25;1.42;;;14.00;96.20;;;;;;5025048;28;20090;-79
2023/04/25 11:41:18;;;;;;;5.47;1.45;;;14.20;96.40;;;;;;5044627;28;20037;-78
2023/04/25 11:43:44;;;;;;;5.22;1.40;;;14.30;96.10;;;;;;5039813;28;20520;-78
2023/04/25 11:46:10;;;;;;;5.97;1.20;;;14.40;96.00;;;;;;5021674;28;20029;-78
2023/04/25 11:48:42;;;;;;;4.55;1.10;;;14.20;96.80;;;;;;5042723;28;20079;-78
2023/04/25 11:51:07;;;;;;;3.90;1.23;;;14.50;96.20;;;;;;5008769;28;20082;-78
2023/04/25 11:53:33;;;;;;;4.32;1.85;;;14.40;96.90;;;;;;5011093;28;20404;-78
2023/04/25 11:55:59;;;;;;;4.90;1.08;;;14.70;95.40;;;;;;5022432;28;20056;-77
2023/04/25 11:58:25;;;;;;;5.15;1.63;;;14.90;95.00;;;;;;5041758;28;20031;-78
2023/04/25 12:00:51;;;;;;;8.30;1.73;;;14.90;96.80;;;;;;5027365;28;20116;-77
2023/04/25 12:03:17;;;;;;;4.30;1.20;;;15.00;96.60;;;;;;5026418;28;20104;-78
2023/04/25 12:05:44;;;;;;;7.07;1.55;;;15.30;94.50;;;;;;5021413;28;20040;-78
2023/04/25 12:08:13;;;;;;;3.85;1.00;;;15.50;92.80;;;;;;5028343;28;20480;-78
2023/04/25 12:10:41;;;;;;;3.67;1.25;;;15.60;94.80;;;;;;5041279;28;20563;-78
2023/04/25 12:13:25;;;;;;;8.40;2.13;;;15.70;95.80;;;;;;5008947;28;20055;-77
2023/04/25 12:15:51;;;;;;;8.63;1.90;;;15.80;96.40;;;;;;5027672;28;20512;-78
2023/04/25 12:18:24;;;;;;;5.37;1.10;;;15.90;96.60;;;;;;4332775;28;10000225;-78
2023/04/25 12:20:49;;;;;;;8.95;1.50;;;16.00;96.20;;;;;;5023434;28;20108;-79
2023/04/25 12:23:15;;;;;;;5.25;1.63;;;16.20;95.80;;;;;;5024653;28;20116;-78
2023/04/25 12:25:44;;;;;;;1.83;0.85;;;15.80;94.60;;;;;;5023597;28;20033;-79
2023/04/25 12:28:23;;;;;;;5.47;1.70;;;15.90;95.20;;;;;;5022070;28;20511;-78
2023/04/25 12:31:05;;;;;;;3.38;1.20;;;16.00;95.10;;;;;;5039872;28;20531;-77
2023/04/25 12:33:34;;;;;;;6.40;1.88;;;16.20;96.50;;;;;;5038121;28;20116;-77
2023/04/25 12:36:08;;;;;;;3.35;1.10;;;16.30;95.10;;;;;;5023085;28;20025;-78
2023/04/25 12:38:38;;;;;;;6.10;1.80;;;16.40;96.60;;;;;;5025330;28;20127;-78
2023/04/25 12:41:04;;;;;;;3.85;1.25;;;16.40;95.40;;;;;;5042477;28;20516;-78
2023/04/25 12:43:29;;;;;;;3.95;1.00;;;16.50;95.60;;;;;;5008591;28;20037;-78
2023/04/25 12:45:56;;;;;;;4.45;1.42;;;16.50;96.20;;;;;;5043615;28;20120;-78